sensor_id;sensor_type;location;lat;lon;timestamp;P1;durP1;ratioP1;P2;durP2;ratioP2
7883;SDS011;3987;51.458;7.238;2023-07-20T00:02:19;6.63;;;6.13;;
7883;SDS011;3987;51.458;7.238;2023-07-20T00:17:19;5.97;;;5.43;;
7883;SDS011;3987;51.458;7.238;2023-07-20T00:32:20;5.70;;;5.50;;
7883;SDS011;3987;51.458;7.238;2023-07-20T00:47:21;6.50;;;6.13;;
7883;SDS011;3987;51.458;7.238;2023-07-20T01:02:22;6.67;;;6.00;;
7883;SDS011;3987;51.458;7.238;2023-07-20T01:17:22;6.13;;;5.77;;
7883;SDS011;3987;51.458;7.238;2023-07-20T01:32:24;8.07;;;7.43;;
7883;SDS011;3987;51.458;7.238;2023-07-20T01:47:27;7.07;;;6.63;;
7883;SDS011;3987;51.458;7.238;2023-07-20T02:02:27;8.33;;;7.83;;
7883;SDS011;3987;51.458;7.238;2023-07-20T02:17:28;10.33;;;7.97;;
7883;SDS011;3987;51.458;7.238;2023-07-20T02:32:29;8.50;;;7.73;;
7883;SDS011;3987;51.458;7.238;2023-07-20T02:47:30;9.80;;;8.97;;
7883;SDS011;3987;51.458;7.238;2023-07-20T03:02:32;12.23;;;11.07;;
7883;SDS011;3987;51.458;7.238;2023-07-20T03:17:32;10.57;;;9.67;;
7883;SDS011;3987;51.458;7.238;2023-07-20T03:32:33;16.20;;;14.43;;
7883;SDS011;3987;51.458;7.238;2023-07-20T03:47:36;21.10;;;16.90;;
7883;SDS011;3987;51.458;7.238;2023-07-20T04:02:36;25.30;;;18.53;;
7883;SDS011;3987;51.458;7.238;2023-07-20T04:17:37;22.83;;;19.60;;
7883;SDS011;3987;51.458;7.238;2023-07-20T04:32:37;29.50;;;22.30;;
7883;SDS011;3987;51.458;7.238;2023-07-20T04:47:39;32.60;;;24.80;;
7883;SDS011;3987;51.458;7.238;2023-07-20T05:02:39;31.85;;;25.50;;
7883;SDS011;3987;51.458;7.238;2023-07-20T05:17:41;36.37;;;28.50;;
7883;SDS011;3987;51.458;7.238;2023-07-20T05:32:42;19.30;;;17.57;;
7883;SDS011;3987;51.458;7.238;2023-07-20T05:47:46;18.37;;;16.67;;
7883;SDS011;3987;51.458;7.238;2023-07-20T06:02:46;15.83;;;14.43;;
7883;SDS011;3987;51.458;7.238;2023-07-20T06:17:47;12.93;;;12.03;;
7883;SDS011;3987;51.458;7.238;2023-07-20T06:32:48;12.77;;;11.87;;
7883;SDS011;3987;51.458;7.238;2023-07-20T06:47:48;10.10;;;9.53;;
7883;SDS011;3987;51.458;7.238;2023-07-20T07:02:49;13.50;;;12.50;;
7883;SDS011;3987;51.458;7.238;2023-07-20T07:17:49;10.33;;;9.83;;
7883;SDS011;3987;51.458;7.238;2023-07-20T07:32:50;9.50;;;9.20;;
7883;SDS011;3987;51.458;7.238;2023-07-20T07:47:51;8.00;;;7.80;;
7883;SDS011;3987;51.458;7.238;2023-07-20T08:02:51;4.67;;;4.57;;
7883;SDS011;3987;51.458;7.238;2023-07-20T08:17:52;4.23;;;4.13;;
7883;SDS011;3987;51.458;7.238;2023-07-20T08:32:52;6.07;;;5.97;;
7883;SDS011;3987;51.458;7.238;2023-07-20T08:47:53;4.50;;;4.40;;
7883;SDS011;3987;51.458;7.238;2023-07-20T09:02:55;2.20;;;2.20;;
7883;SDS011;3987;51.458;7.238;2023-07-20T09:17:58;3.00;;;3.00;;
7883;SDS011;3987;51.458;7.238;2023-07-20T09:33:01;3.97;;;3.87;;
7883;SDS011;3987;51.458;7.238;2023-07-20T09:48:05;4.00;;;3.90;;
7883;SDS011;3987;51.458;7.238;2023-07-20T10:03:06;4.23;;;4.13;;
7883;SDS011;3987;51.458;7.238;2023-07-20T10:18:09;2.50;;;2.50;;
7883;SDS011;3987;51.458;7.238;2023-07-20T10:33:13;1.63;;;1.53;;
7883;SDS011;3987;51.458;7.238;2023-07-20T10:48:14;0.50;;;0.50;;
7883;SDS011;3987;51.458;7.238;2023-07-20T11:03:26;0.70;;;0.70;;
7883;SDS011;3987;51.458;7.238;2023-07-20T11:18:27;0.67;;;0.67;;
7883;SDS011;3987;51.458;7.238;2023-07-20T11:33:28;0.93;;;0.40;;
7883;SDS011;3987;51.458;7.238;2023-07-20T11:48:29;0.47;;;0.40;;
7883;SDS011;3987;51.458;7.238;2023-07-20T12:03:30;1.80;;;0.77;;
7883;SDS011;3987;51.458;7.238;2023-07-20T12:18:34;1.37;;;0.73;;
7883;SDS011;3987;51.458;7.238;2023-07-20T12:33:36;0.47;;;0.47;;
7883;SDS011;3987;51.458;7.238;2023-07-20T12:48:40;1.30;;;0.60;;
7883;SDS011;3987;51.458;7.238;2023-07-20T13:03:42;1.07;;;0.80;;
7883;SDS011;3987;51.458;7.238;2023-07-20T13:18:42;1.70;;;0.90;;
7883;SDS011;3987;51.458;7.238;2023-07-20T13:33:42;1.60;;;0.60;;
7883;SDS011;3987;51.458;7.238;2023-07-20T13:48:43;0.53;;;0.53;;
7883;SDS011;3987;51.458;7.238;2023-07-20T14:03:44;0.77;;;0.77;;
7883;SDS011;3987;51.458;7.238;2023-07-20T14:18:44;0.70;;;0.70;;
7883;SDS011;3987;51.458;7.238;2023-07-20T14:33:47;1.00;;;1.00;;
7883;SDS011;3987;51.458;7.238;2023-07-20T14:48:47;0.93;;;0.90;;
7883;SDS011;3987;51.458;7.238;2023-07-20T15:03:48;1.23;;;1.00;;
7883;SDS011;3987;51.458;7.238;2023-07-20T15:18:52;0.90;;;0.90;;
7883;SDS011;3987;51.458;7.238;2023-07-20T15:33:53;1.03;;;1.03;;
7883;SDS011;3987;51.458;7.238;2023-07-20T15:48:54;1.30;;;0.77;;
7883;SDS011;3987;51.458;7.238;2023-07-20T16:03:54;0.60;;;0.60;;
7883;SDS011;3987;51.458;7.238;2023-07-20T16:18:55;2.20;;;0.80;;
7883;SDS011;3987;51.458;7.238;2023-07-20T16:33:55;0.80;;;0.70;;
7883;SDS011;3987;51.458;7.238;2023-07-20T16:48:56;0.70;;;0.70;;
7883;SDS011;3987;51.458;7.238;2023-07-20T17:03:56;0.70;;;0.70;;
7883;SDS011;3987;51.458;7.238;2023-07-20T17:18:57;0.73;;;0.73;;
7883;SDS011;3987;51.458;7.238;2023-07-20T17:33:57;1.13;;;0.97;;
7883;SDS011;3987;51.458;7.238;2023-07-20T17:48:59;0.70;;;0.70;;
7883;SDS011;3987;51.458;7.238;2023-07-20T18:04:02;0.90;;;0.90;;
7883;SDS011;3987;51.458;7.238;2023-07-20T18:19:03;0.80;;;0.80;;
7883;SDS011;3987;51.458;7.238;2023-07-20T18:34:04;0.80;;;0.80;;
7883;SDS011;3987;51.458;7.238;2023-07-20T18:49:04;0.80;;;0.80;;
7883;SDS011;3987;51.458;7.238;2023-07-20T19:04:05;1.00;;;0.63;;
7883;SDS011;3987;51.458;7.238;2023-07-20T19:19:05;0.60;;;0.57;;
7883;SDS011;3987;51.458;7.238;2023-07-20T19:34:06;0.60;;;0.60;;
7883;SDS011;3987;51.458;7.238;2023-07-20T19:49:06;2.03;;;0.80;;
7883;SDS011;3987;51.458;7.238;2023-07-20T20:04:07;0.77;;;0.77;;
7883;SDS011;3987;51.458;7.238;2023-07-20T20:19:07;0.83;;;0.83;;
7883;SDS011;3987;51.458;7.238;2023-07-20T20:34:09;1.03;;;0.93;;
7883;SDS011;3987;51.458;7.238;2023-07-20T20:49:10;1.10;;;1.10;;
7883;SDS011;3987;51.458;7.238;2023-07-20T21:04:10;2.50;;;1.07;;
7883;SDS011;3987;51.458;7.238;2023-07-20T21:19:10;1.00;;;1.00;;
7883;SDS011;3987;51.458;7.238;2023-07-20T21:34:11;1.63;;;1.63;;
7883;SDS011;3987;51.458;7.238;2023-07-20T21:49:11;4.90;;;4.70;;
7883;SDS011;3987;51.458;7.238;2023-07-20T22:04:12;5.93;;;5.83;;
7883;SDS011;3987;51.458;7.238;2023-07-20T22:19:13;6.80;;;6.60;;
7883;SDS011;3987;51.458;7.238;2023-07-20T22:34:19;7.73;;;7.17;;
7883;SDS011;3987;51.458;7.238;2023-07-20T22:49:20;7.67;;;7.37;;
7883;SDS011;3987;51.458;7.238;2023-07-20T23:04:20;8.03;;;7.83;;
7883;SDS011;3987;51.458;7.238;2023-07-20T23:19:21;8.77;;;8.43;;
7883;SDS011;3987;51.458;7.238;2023-07-20T23:34:21;9.17;;;8.77;;
7883;SDS011;3987;51.458;7.238;2023-07-20T23:49:21;9.27;;;8.97;;
